Huvudsida
METAR-TAF:

METAR-TAF

Flygplatser :

Tasjkent, Uzbekistan

latitud: 41-16N, longitud: 069-16E, höjd: 489 m

Aktuellt väderrapport

Denna rapport gjordes för 27 minuter sedan, klockan 00:30 UTC
Vind 2 kt från ost
Temperatur 7°C
Fuktighet 42%
Tryck 1020 hPa
Sikt 10 km eller mer
Inga moln under 1 500 m eller inga cumulonimbus

METAR: UTTT 200030Z 09002KT CAVOK 07/M05 Q1020 R08R/CLRD70 NOSIG

Tid: 05:57 (00:57 UTC)

Väderprognos

Denna rapport gjordes för 1 timme och 57 minuter sedan, klockan 23:00 UTC
Prognos gäller från 20 kl. 00 UTC till 20 kl. 24 UTC
Vind 10 kt från ost
Sikt: 7000 m

TAF: UTTT 192300Z 2000/2024 08010KT 7000 NSC

Aktuella väderrapporter och prognoser från 4000 flygplatser (METAR- och TAF-rapporter).

De tillgängliga stationerna syns som gula och röda prickar på kartan.

För musen över prickarna för att se namnen på stationerna.

Klicka sedan för att få väderrapporter och prognoser.

För att ändra kartan: Klicka på de gröna knapparna med ett svart kors på för att zooma in; den gröna knappen med ett streck på för att zooma ut; eller på de gröna pilarna för angränsande kartor.


METAR-TAF: